Terminal Aerodrome Forecast
Issued by NWS St Louis, MO

Home | Current Version | Previous Version | Text Only | Print | Product List | Glossary On
Versions: 1 2 3 4 5 6 7 8 9 10 11 12 13 14
910
FTUS43 KLSX 061730
TAFCOU
TAF
KCOU 061730Z 0618/0718 31012G18KT P6SM SCT030
     FM061900 31012KT P6SM FEW200
     FM062300 29007KT P6SM FEW250
     FM070800 30005KT P6SM BKN110=

USA.gov is the U.S. government's official web portal to all federal, state and local government web resources and services.